sensor_id;sensor_type;location;lat;lon;timestamp;temperature;humidity
41471;DHT22;27211;51.220;5.308;2022-07-29T00:02:26;20.60;99.90
41471;DHT22;27211;51.220;5.308;2022-07-29T00:04:53;20.20;99.90
41471;DHT22;27211;51.220;5.308;2022-07-29T00:07:19;19.90;99.90
41471;DHT22;27211;51.220;5.308;2022-07-29T00:09:45;19.60;99.90
41471;DHT22;27211;51.220;5.308;2022-07-29T00:12:10;19.40;99.90
41471;DHT22;27211;51.220;5.308;2022-07-29T00:14:37;19.20;99.90
41471;DHT22;27211;51.220;5.308;2022-07-29T00:17:03;19.00;99.90
41471;DHT22;27211;51.220;5.308;2022-07-29T00:19:29;18.80;99.90
41471;DHT22;27211;51.220;5.308;2022-07-29T00:21:55;18.60;99.90
41471;DHT22;27211;51.220;5.308;2022-07-29T00:24:21;18.50;99.90
41471;DHT22;27211;51.220;5.308;2022-07-29T00:26:47;18.30;99.90
41471;DHT22;27211;51.220;5.308;2022-07-29T00:29:13;18.40;99.90
41471;DHT22;27211;51.220;5.308;2022-07-29T00:31:38;18.30;99.90
41471;DHT22;27211;51.220;5.308;2022-07-29T00:34:04;18.30;99.90
41471;DHT22;27211;51.220;5.308;2022-07-29T00:36:31;18.10;99.90
41471;DHT22;27211;51.220;5.308;2022-07-29T00:38:57;18.10;99.90
41471;DHT22;27211;51.220;5.308;2022-07-29T00:41:30;17.90;99.90
41471;DHT22;27211;51.220;5.308;2022-07-29T00:44:06;17.70;99.90
41471;DHT22;27211;51.220;5.308;2022-07-29T00:46:35;17.70;99.90
41471;DHT22;27211;51.220;5.308;2022-07-29T00:49:00;17.70;99.90
41471;DHT22;27211;51.220;5.308;2022-07-29T00:51:27;17.70;99.90
41471;DHT22;27211;51.220;5.308;2022-07-29T00:53:53;17.80;99.90
41471;DHT22;27211;51.220;5.308;2022-07-29T00:56:19;17.60;99.90
41471;DHT22;27211;51.220;5.308;2022-07-29T00:58:49;17.60;99.90
41471;DHT22;27211;51.220;5.308;2022-07-29T01:01:16;17.80;99.90
41471;DHT22;27211;51.220;5.308;2022-07-29T01:03:42;18.00;99.90
41471;DHT22;27211;51.220;5.308;2022-07-29T01:06:08;18.10;99.90
41471;DHT22;27211;51.220;5.308;2022-07-29T01:08:35;18.20;99.90
41471;DHT22;27211;51.220;5.308;2022-07-29T01:11:02;18.00;99.90
41471;DHT22;27211;51.220;5.308;2022-07-29T01:13:30;17.90;99.90
41471;DHT22;27211;51.220;5.308;2022-07-29T01:16:07;17.80;99.90
41471;DHT22;27211;51.220;5.308;2022-07-29T01:18:39;17.90;99.90
41471;DHT22;27211;51.220;5.308;2022-07-29T01:26:41;17.70;99.90
41471;DHT22;27211;51.220;5.308;2022-07-29T01:29:51;17.70;99.90
41471;DHT22;27211;51.220;5.308;2022-07-29T01:32:08;17.60;99.90
41471;DHT22;27211;51.220;5.308;2022-07-29T01:37:39;17.70;99.90
41471;DHT22;27211;51.220;5.308;2022-07-29T01:40:14;17.60;99.90
41471;DHT22;27211;51.220;5.308;2022-07-29T01:42:50;17.70;99.90
41471;DHT22;27211;51.220;5.308;2022-07-29T01:45:21;17.70;99.90
41471;DHT22;27211;51.220;5.308;2022-07-29T01:48:11;17.70;99.90
41471;DHT22;27211;51.220;5.308;2022-07-29T01:50:48;17.70;99.90
41471;DHT22;27211;51.220;5.308;2022-07-29T01:53:30;17.60;99.90
41471;DHT22;27211;51.220;5.308;2022-07-29T01:55:57;17.40;99.90
41471;DHT22;27211;51.220;5.308;2022-07-29T01:58:28;17.50;99.90
41471;DHT22;27211;51.220;5.308;2022-07-29T02:00:56;17.50;99.90
41471;DHT22;27211;51.220;5.308;2022-07-29T02:03:23;17.60;99.90
41471;DHT22;27211;51.220;5.308;2022-07-29T02:05:52;17.50;99.90
41471;DHT22;27211;51.220;5.308;2022-07-29T02:08:19;17.50;99.90
41471;DHT22;27211;51.220;5.308;2022-07-29T02:10:47;17.60;99.90
41471;DHT22;27211;51.220;5.308;2022-07-29T02:13:16;17.60;99.90
41471;DHT22;27211;51.220;5.308;2022-07-29T02:15:43;17.50;99.90
41471;DHT22;27211;51.220;5.308;2022-07-29T02:18:15;17.40;99.90
41471;DHT22;27211;51.220;5.308;2022-07-29T02:20:45;17.30;99.90
41471;DHT22;27211;51.220;5.308;2022-07-29T02:23:12;17.40;99.90
41471;DHT22;27211;51.220;5.308;2022-07-29T02:25:42;17.40;99.90
41471;DHT22;27211;51.220;5.308;2022-07-29T02:28:08;17.50;99.90
41471;DHT22;27211;51.220;5.308;2022-07-29T02:30:39;17.60;99.90
41471;DHT22;27211;51.220;5.308;2022-07-29T02:33:07;17.60;99.90
41471;DHT22;27211;51.220;5.308;2022-07-29T02:35:34;17.60;99.90
41471;DHT22;27211;51.220;5.308;2022-07-29T02:38:01;17.60;99.90
41471;DHT22;27211;51.220;5.308;2022-07-29T02:40:47;17.60;99.90
41471;DHT22;27211;51.220;5.308;2022-07-29T02:43:14;17.60;99.90
41471;DHT22;27211;51.220;5.308;2022-07-29T02:45:40;17.70;99.90
41471;DHT22;27211;51.220;5.308;2022-07-29T02:48:12;17.90;99.90
41471;DHT22;27211;51.220;5.308;2022-07-29T02:50:45;17.80;99.90
41471;DHT22;27211;51.220;5.308;2022-07-29T02:53:18;17.80;99.90
41471;DHT22;27211;51.220;5.308;2022-07-29T02:55:55;17.80;99.90
41471;DHT22;27211;51.220;5.308;2022-07-29T02:58:29;17.70;99.90
41471;DHT22;27211;51.220;5.308;2022-07-29T03:01:23;17.50;99.90
41471;DHT22;27211;51.220;5.308;2022-07-29T03:03:52;17.40;99.90
41471;DHT22;27211;51.220;5.308;2022-07-29T03:06:21;17.40;99.90
41471;DHT22;27211;51.220;5.308;2022-07-29T03:08:48;17.40;99.90
41471;DHT22;27211;51.220;5.308;2022-07-29T03:11:15;17.50;99.90
41471;DHT22;27211;51.220;5.308;2022-07-29T03:13:42;17.50;99.90
41471;DHT22;27211;51.220;5.308;2022-07-29T03:16:08;17.50;99.90
41471;DHT22;27211;51.220;5.308;2022-07-29T03:18:35;17.40;99.90
41471;DHT22;27211;51.220;5.308;2022-07-29T03:21:03;17.30;99.90
41471;DHT22;27211;51.220;5.308;2022-07-29T03:23:29;17.20;99.90
41471;DHT22;27211;51.220;5.308;2022-07-29T03:25:55;17.10;99.90
41471;DHT22;27211;51.220;5.308;2022-07-29T03:28:21;17.20;99.90
41471;DHT22;27211;51.220;5.308;2022-07-29T03:30:48;17.30;99.90
41471;DHT22;27211;51.220;5.308;2022-07-29T03:33:15;17.20;99.90
41471;DHT22;27211;51.220;5.308;2022-07-29T03:35:41;17.10;99.90
41471;DHT22;27211;51.220;5.308;2022-07-29T03:38:07;17.20;99.90
41471;DHT22;27211;51.220;5.308;2022-07-29T03:40:53;17.10;99.90
41471;DHT22;27211;51.220;5.308;2022-07-29T03:43:20;17.10;99.90
41471;DHT22;27211;51.220;5.308;2022-07-29T03:45:50;17.00;99.90
41471;DHT22;27211;51.220;5.308;2022-07-29T03:48:21;17.00;99.90
41471;DHT22;27211;51.220;5.308;2022-07-29T03:50:48;17.00;99.90
41471;DHT22;27211;51.220;5.308;2022-07-29T03:53:14;17.10;99.90
41471;DHT22;27211;51.220;5.308;2022-07-29T03:55:44;16.90;99.90
41471;DHT22;27211;51.220;5.308;2022-07-29T03:58:12;16.80;99.90
41471;DHT22;27211;51.220;5.308;2022-07-29T04:00:40;16.90;99.90
41471;DHT22;27211;51.220;5.308;2022-07-29T04:03:07;16.80;99.90
41471;DHT22;27211;51.220;5.308;2022-07-29T04:05:34;16.70;99.90
41471;DHT22;27211;51.220;5.308;2022-07-29T04:08:00;16.80;99.90
41471;DHT22;27211;51.220;5.308;2022-07-29T04:10:26;16.80;99.90
41471;DHT22;27211;51.220;5.308;2022-07-29T04:12:52;16.90;99.90
41471;DHT22;27211;51.220;5.308;2022-07-29T04:15:18;16.90;99.90
41471;DHT22;27211;51.220;5.308;2022-07-29T04:17:45;17.00;99.90
41471;DHT22;27211;51.220;5.308;2022-07-29T04:20:11;16.90;99.90
41471;DHT22;27211;51.220;5.308;2022-07-29T04:22:39;16.90;99.90
41471;DHT22;27211;51.220;5.308;2022-07-29T04:25:05;16.90;99.90
41471;DHT22;27211;51.220;5.308;2022-07-29T04:27:34;16.90;99.90
41471;DHT22;27211;51.220;5.308;2022-07-29T04:30:00;17.00;99.90
41471;DHT22;27211;51.220;5.308;2022-07-29T04:32:26;17.10;99.90
41471;DHT22;27211;51.220;5.308;2022-07-29T04:34:52;17.30;99.90
41471;DHT22;27211;51.220;5.308;2022-07-29T04:37:18;17.20;99.90
41471;DHT22;27211;51.220;5.308;2022-07-29T04:39:43;17.00;99.90
41471;DHT22;27211;51.220;5.308;2022-07-29T04:42:09;17.00;99.90
41471;DHT22;27211;51.220;5.308;2022-07-29T04:44:35;17.10;99.90
41471;DHT22;27211;51.220;5.308;2022-07-29T04:47:01;17.00;99.90
41471;DHT22;27211;51.220;5.308;2022-07-29T04:49:27;17.00;99.90
41471;DHT22;27211;51.220;5.308;2022-07-29T04:51:53;17.00;99.90
41471;DHT22;27211;51.220;5.308;2022-07-29T04:54:18;16.90;99.90
41471;DHT22;27211;51.220;5.308;2022-07-29T04:56:44;16.90;99.90
41471;DHT22;27211;51.220;5.308;2022-07-29T04:59:11;16.90;99.90
41471;DHT22;27211;51.220;5.308;2022-07-29T05:01:38;16.90;99.90
41471;DHT22;27211;51.220;5.308;2022-07-29T05:04:04;17.00;99.90
41471;DHT22;27211;51.220;5.308;2022-07-29T05:06:30;17.00;99.90
41471;DHT22;27211;51.220;5.308;2022-07-29T05:08:56;17.00;99.90
41471;DHT22;27211;51.220;5.308;2022-07-29T05:11:22;17.00;99.90
41471;DHT22;27211;51.220;5.308;2022-07-29T05:13:51;17.00;99.90
41471;DHT22;27211;51.220;5.308;2022-07-29T05:16:17;17.10;99.90
41471;DHT22;27211;51.220;5.308;2022-07-29T05:18:43;17.00;99.90
41471;DHT22;27211;51.220;5.308;2022-07-29T05:21:09;17.10;99.90
41471;DHT22;27211;51.220;5.308;2022-07-29T05:23:35;17.10;99.90
41471;DHT22;27211;51.220;5.308;2022-07-29T05:26:01;17.10;99.90
41471;DHT22;27211;51.220;5.308;2022-07-29T05:28:27;17.00;99.90
41471;DHT22;27211;51.220;5.308;2022-07-29T05:30:53;17.00;99.90
41471;DHT22;27211;51.220;5.308;2022-07-29T05:33:18;17.00;99.90
41471;DHT22;27211;51.220;5.308;2022-07-29T05:35:44;16.90;99.90
41471;DHT22;27211;51.220;5.308;2022-07-29T05:38:10;17.00;99.90
41471;DHT22;27211;51.220;5.308;2022-07-29T05:40:36;17.00;99.90
41471;DHT22;27211;51.220;5.308;2022-07-29T05:43:02;16.90;99.90
41471;DHT22;27211;51.220;5.308;2022-07-29T05:45:28;17.10;99.90
41471;DHT22;27211;51.220;5.308;2022-07-29T05:47:53;17.20;99.90
41471;DHT22;27211;51.220;5.308;2022-07-29T05:50:19;17.20;99.90
41471;DHT22;27211;51.220;5.308;2022-07-29T05:52:45;17.20;99.90
41471;DHT22;27211;51.220;5.308;2022-07-29T05:55:11;17.20;99.90
41471;DHT22;27211;51.220;5.308;2022-07-29T05:57:37;17.30;99.90
41471;DHT22;27211;51.220;5.308;2022-07-29T06:00:03;17.20;99.90
41471;DHT22;27211;51.220;5.308;2022-07-29T06:02:29;17.30;99.90
41471;DHT22;27211;51.220;5.308;2022-07-29T06:04:55;17.20;99.90
41471;DHT22;27211;51.220;5.308;2022-07-29T06:07:21;17.20;99.90
41471;DHT22;27211;51.220;5.308;2022-07-29T06:09:47;17.30;99.90
41471;DHT22;27211;51.220;5.308;2022-07-29T06:12:13;17.30;99.90
41471;DHT22;27211;51.220;5.308;2022-07-29T06:14:39;17.20;99.90
41471;DHT22;27211;51.220;5.308;2022-07-29T06:17:05;17.10;99.90
41471;DHT22;27211;51.220;5.308;2022-07-29T06:19:33;17.10;99.90
41471;DHT22;27211;51.220;5.308;2022-07-29T06:21:59;17.10;99.90
41471;DHT22;27211;51.220;5.308;2022-07-29T06:24:26;17.20;99.90
41471;DHT22;27211;51.220;5.308;2022-07-29T06:26:52;17.30;99.90
41471;DHT22;27211;51.220;5.308;2022-07-29T06:29:18;17.30;99.90
41471;DHT22;27211;51.220;5.308;2022-07-29T06:31:44;17.70;99.90
41471;DHT22;27211;51.220;5.308;2022-07-29T06:34:10;18.40;99.90
41471;DHT22;27211;51.220;5.308;2022-07-29T06:36:36;19.00;99.90
41471;DHT22;27211;51.220;5.308;2022-07-29T06:39:06;19.40;99.90
41471;DHT22;27211;51.220;5.308;2022-07-29T06:41:33;19.80;99.90
41471;DHT22;27211;51.220;5.308;2022-07-29T06:43:59;20.10;99.90
41471;DHT22;27211;51.220;5.308;2022-07-29T06:46:25;20.50;99.90
41471;DHT22;27211;51.220;5.308;2022-07-29T06:48:51;20.90;99.90
41471;DHT22;27211;51.220;5.308;2022-07-29T06:51:17;21.20;99.90
41471;DHT22;27211;51.220;5.308;2022-07-29T06:53:43;21.50;99.90
41471;DHT22;27211;51.220;5.308;2022-07-29T06:56:09;21.40;99.90
41471;DHT22;27211;51.220;5.308;2022-07-29T06:58:38;20.90;99.90
41471;DHT22;27211;51.220;5.308;2022-07-29T07:01:05;20.70;99.90
41471;DHT22;27211;51.220;5.308;2022-07-29T07:03:32;20.60;99.90
41471;DHT22;27211;51.220;5.308;2022-07-29T07:05:58;20.40;99.90
41471;DHT22;27211;51.220;5.308;2022-07-29T07:08:24;20.30;99.90
41471;DHT22;27211;51.220;5.308;2022-07-29T07:10:50;20.40;99.90
41471;DHT22;27211;51.220;5.308;2022-07-29T07:13:16;20.80;99.90
41471;DHT22;27211;51.220;5.308;2022-07-29T07:15:43;21.20;99.90
41471;DHT22;27211;51.220;5.308;2022-07-29T07:18:09;22.00;99.90
41471;DHT22;27211;51.220;5.308;2022-07-29T07:20:36;22.70;99.90
41471;DHT22;27211;51.220;5.308;2022-07-29T07:23:01;23.20;99.90
41471;DHT22;27211;51.220;5.308;2022-07-29T07:25:28;23.40;99.90
41471;DHT22;27211;51.220;5.308;2022-07-29T07:27:53;23.80;99.90
41471;DHT22;27211;51.220;5.308;2022-07-29T07:30:19;24.40;99.90
41471;DHT22;27211;51.220;5.308;2022-07-29T07:32:45;24.50;99.90
41471;DHT22;27211;51.220;5.308;2022-07-29T07:35:11;24.60;99.90
41471;DHT22;27211;51.220;5.308;2022-07-29T07:37:37;25.10;99.90
41471;DHT22;27211;51.220;5.308;2022-07-29T07:40:04;25.30;99.90
41471;DHT22;27211;51.220;5.308;2022-07-29T07:42:30;25.50;99.90
41471;DHT22;27211;51.220;5.308;2022-07-29T07:44:57;25.90;99.90
41471;DHT22;27211;51.220;5.308;2022-07-29T07:47:23;26.00;99.90
41471;DHT22;27211;51.220;5.308;2022-07-29T07:49:50;26.60;99.90
41471;DHT22;27211;51.220;5.308;2022-07-29T07:52:17;26.60;99.90
41471;DHT22;27211;51.220;5.308;2022-07-29T07:54:44;26.80;99.40
41471;DHT22;27211;51.220;5.308;2022-07-29T07:57:11;27.50;99.90
41471;DHT22;27211;51.220;5.308;2022-07-29T07:59:37;27.80;98.90
41471;DHT22;27211;51.220;5.308;2022-07-29T08:02:03;27.90;98.60
41471;DHT22;27211;51.220;5.308;2022-07-29T08:04:29;28.60;97.10
41471;DHT22;27211;51.220;5.308;2022-07-29T08:06:57;28.40;96.80
41471;DHT22;27211;51.220;5.308;2022-07-29T08:09:23;28.40;96.20
41471;DHT22;27211;51.220;5.308;2022-07-29T08:11:50;28.30;96.10
41471;DHT22;27211;51.220;5.308;2022-07-29T08:14:16;28.40;96.80
41471;DHT22;27211;51.220;5.308;2022-07-29T08:16:42;28.90;95.90
41471;DHT22;27211;51.220;5.308;2022-07-29T08:19:08;29.00;96.00
41471;DHT22;27211;51.220;5.308;2022-07-29T08:21:34;29.00;95.00
41471;DHT22;27211;51.220;5.308;2022-07-29T08:24:01;29.30;94.90
41471;DHT22;27211;51.220;5.308;2022-07-29T08:26:45;28.90;94.40
41471;DHT22;27211;51.220;5.308;2022-07-29T08:29:12;29.50;93.90
41471;DHT22;27211;51.220;5.308;2022-07-29T08:31:39;29.20;93.30
41471;DHT22;27211;51.220;5.308;2022-07-29T08:34:05;29.50;93.40
41471;DHT22;27211;51.220;5.308;2022-07-29T08:36:32;29.20;94.20
41471;DHT22;27211;51.220;5.308;2022-07-29T08:38:59;29.40;94.60
41471;DHT22;27211;51.220;5.308;2022-07-29T08:41:25;30.00;93.90
41471;DHT22;27211;51.220;5.308;2022-07-29T08:43:51;30.00;93.50
41471;DHT22;27211;51.220;5.308;2022-07-29T08:46:18;30.50;93.00
41471;DHT22;27211;51.220;5.308;2022-07-29T08:48:44;30.90;91.90
41471;DHT22;27211;51.220;5.308;2022-07-29T08:51:17;30.30;90.70
41471;DHT22;27211;51.220;5.308;2022-07-29T08:53:45;30.90;91.70
41471;DHT22;27211;51.220;5.308;2022-07-29T08:56:15;31.30;91.60
41471;DHT22;27211;51.220;5.308;2022-07-29T08:59:04;31.40;91.00
41471;DHT22;27211;51.220;5.308;2022-07-29T09:01:32;31.60;90.10
41471;DHT22;27211;51.220;5.308;2022-07-29T09:03:59;31.80;90.80
41471;DHT22;27211;51.220;5.308;2022-07-29T09:06:30;32.20;87.80
41471;DHT22;27211;51.220;5.308;2022-07-29T09:08:59;31.80;87.60
41471;DHT22;27211;51.220;5.308;2022-07-29T09:11:26;32.10;85.80
41471;DHT22;27211;51.220;5.308;2022-07-29T09:13:52;32.00;85.60
41471;DHT22;27211;51.220;5.308;2022-07-29T09:16:18;32.10;87.10
41471;DHT22;27211;51.220;5.308;2022-07-29T09:18:45;31.90;85.00
41471;DHT22;27211;51.220;5.308;2022-07-29T09:21:16;32.70;84.40
41471;DHT22;27211;51.220;5.308;2022-07-29T09:24:07;32.40;85.00
41471;DHT22;27211;51.220;5.308;2022-07-29T09:26:36;32.60;82.80
41471;DHT22;27211;51.220;5.308;2022-07-29T09:29:09;32.80;84.90
41471;DHT22;27211;51.220;5.308;2022-07-29T09:31:37;32.80;83.20
41471;DHT22;27211;51.220;5.308;2022-07-29T09:34:04;33.40;81.40
41471;DHT22;27211;51.220;5.308;2022-07-29T09:36:30;33.70;80.60
41471;DHT22;27211;51.220;5.308;2022-07-29T09:39:00;33.50;81.80
41471;DHT22;27211;51.220;5.308;2022-07-29T09:41:28;34.70;80.70
41471;DHT22;27211;51.220;5.308;2022-07-29T09:43:58;34.20;77.20
41471;DHT22;27211;51.220;5.308;2022-07-29T09:46:25;34.20;76.60
41471;DHT22;27211;51.220;5.308;2022-07-29T09:49:10;34.30;75.50
41471;DHT22;27211;51.220;5.308;2022-07-29T09:51:37;34.20;76.60
41471;DHT22;27211;51.220;5.308;2022-07-29T09:54:23;34.50;75.50
41471;DHT22;27211;51.220;5.308;2022-07-29T09:56:51;34.60;73.60
41471;DHT22;27211;51.220;5.308;2022-07-29T09:59:17;34.80;74.30
41471;DHT22;27211;51.220;5.308;2022-07-29T10:01:42;35.10;73.50
41471;DHT22;27211;51.220;5.308;2022-07-29T10:04:09;35.30;72.80
41471;DHT22;27211;51.220;5.308;2022-07-29T10:06:36;35.50;71.50
41471;DHT22;27211;51.220;5.308;2022-07-29T10:09:20;35.20;75.10
41471;DHT22;27211;51.220;5.308;2022-07-29T10:12:04;35.40;72.20
41471;DHT22;27211;51.220;5.308;2022-07-29T10:14:34;35.50;71.20
41471;DHT22;27211;51.220;5.308;2022-07-29T10:17:02;35.80;69.50
41471;DHT22;27211;51.220;5.308;2022-07-29T10:19:30;35.80;69.80
41471;DHT22;27211;51.220;5.308;2022-07-29T10:22:01;36.70;70.80
41471;DHT22;27211;51.220;5.308;2022-07-29T10:24:28;36.10;67.70
41471;DHT22;27211;51.220;5.308;2022-07-29T10:26:56;36.50;67.10
41471;DHT22;27211;51.220;5.308;2022-07-29T10:29:23;36.90;66.80
41471;DHT22;27211;51.220;5.308;2022-07-29T10:39:50;37.40;63.10
41471;DHT22;27211;51.220;5.308;2022-07-29T10:42:20;37.40;62.70
41471;DHT22;27211;51.220;5.308;2022-07-29T10:44:48;37.90;62.10
41471;DHT22;27211;51.220;5.308;2022-07-29T10:47:22;38.70;60.40
41471;DHT22;27211;51.220;5.308;2022-07-29T10:49:59;37.90;60.70
41471;DHT22;27211;51.220;5.308;2022-07-29T10:58:17;38.40;57.80
41471;DHT22;27211;51.220;5.308;2022-07-29T11:00:45;37.70;58.00
41471;DHT22;27211;51.220;5.308;2022-07-29T11:03:43;37.80;58.00
41471;DHT22;27211;51.220;5.308;2022-07-29T11:06:13;38.50;57.40
41471;DHT22;27211;51.220;5.308;2022-07-29T11:08:40;38.10;56.30
41471;DHT22;27211;51.220;5.308;2022-07-29T11:11:32;38.50;55.70
41471;DHT22;27211;51.220;5.308;2022-07-29T11:13:58;38.80;55.50
41471;DHT22;27211;51.220;5.308;2022-07-29T11:16:24;38.90;55.90
41471;DHT22;27211;51.220;5.308;2022-07-29T11:21:43;39.80;55.20
41471;DHT22;27211;51.220;5.308;2022-07-29T11:24:16;39.70;55.10
41471;DHT22;27211;51.220;5.308;2022-07-29T11:26:42;39.60;55.60
41471;DHT22;27211;51.220;5.308;2022-07-29T11:29:20;39.40;55.00
41471;DHT22;27211;51.220;5.308;2022-07-29T11:31:51;39.20;54.70
41471;DHT22;27211;51.220;5.308;2022-07-29T11:45:13;39.50;53.30
41471;DHT22;27211;51.220;5.308;2022-07-29T11:47:42;39.50;52.90
41471;DHT22;27211;51.220;5.308;2022-07-29T11:50:14;39.80;51.50
41471;DHT22;27211;51.220;5.308;2022-07-29T11:52:42;39.30;53.40
41471;DHT22;27211;51.220;5.308;2022-07-29T11:55:12;38.60;53.40
41471;DHT22;27211;51.220;5.308;2022-07-29T11:57:47;39.10;52.40
41471;DHT22;27211;51.220;5.308;2022-07-29T12:02:47;39.60;53.20
41471;DHT22;27211;51.220;5.308;2022-07-29T12:05:13;40.20;52.90
41471;DHT22;27211;51.220;5.308;2022-07-29T12:07:39;40.30;51.60
41471;DHT22;27211;51.220;5.308;2022-07-29T12:10:06;40.30;51.50
41471;DHT22;27211;51.220;5.308;2022-07-29T12:12:33;39.80;51.10
41471;DHT22;27211;51.220;5.308;2022-07-29T12:15:14;39.60;51.20
41471;DHT22;27211;51.220;5.308;2022-07-29T12:17:40;38.30;51.40
41471;DHT22;27211;51.220;5.308;2022-07-29T12:20:06;37.10;52.90
41471;DHT22;27211;51.220;5.308;2022-07-29T12:22:37;37.40;53.10
41471;DHT22;27211;51.220;5.308;2022-07-29T12:25:07;38.40;52.70
41471;DHT22;27211;51.220;5.308;2022-07-29T12:27:34;39.20;52.80
41471;DHT22;27211;51.220;5.308;2022-07-29T12:30:03;39.10;51.40
41471;DHT22;27211;51.220;5.308;2022-07-29T12:32:37;39.00;52.10
41471;DHT22;27211;51.220;5.308;2022-07-29T12:37:34;36.50;52.60
41471;DHT22;27211;51.220;5.308;2022-07-29T12:40:01;36.20;53.10
41471;DHT22;27211;51.220;5.308;2022-07-29T12:42:28;36.80;52.70
41471;DHT22;27211;51.220;5.308;2022-07-29T12:44:54;37.70;52.10
41471;DHT22;27211;51.220;5.308;2022-07-29T12:47:20;39.10;50.40
41471;DHT22;27211;51.220;5.308;2022-07-29T12:49:47;40.00;49.40
41471;DHT22;27211;51.220;5.308;2022-07-29T12:52:29;40.90;48.70
41471;DHT22;27211;51.220;5.308;2022-07-29T12:54:56;41.10;48.20
41471;DHT22;27211;51.220;5.308;2022-07-29T12:57:22;41.60;47.30
41471;DHT22;27211;51.220;5.308;2022-07-29T13:00:08;42.00;47.20
41471;DHT22;27211;51.220;5.308;2022-07-29T13:02:37;42.80;47.20
41471;DHT22;27211;51.220;5.308;2022-07-29T13:05:05;41.70;47.80
41471;DHT22;27211;51.220;5.308;2022-07-29T13:07:32;41.60;48.20
41471;DHT22;27211;51.220;5.308;2022-07-29T13:10:12;42.00;47.20
41471;DHT22;27211;51.220;5.308;2022-07-29T13:13:03;42.30;47.60
41471;DHT22;27211;51.220;5.308;2022-07-29T13:15:30;42.10;46.90
41471;DHT22;27211;51.220;5.308;2022-07-29T13:17:57;42.50;47.10
41471;DHT22;27211;51.220;5.308;2022-07-29T13:20:27;42.60;47.00
41471;DHT22;27211;51.220;5.308;2022-07-29T13:22:58;42.50;46.50
41471;DHT22;27211;51.220;5.308;2022-07-29T13:25:27;41.10;46.60
41471;DHT22;27211;51.220;5.308;2022-07-29T13:27:53;41.30;47.00
41471;DHT22;27211;51.220;5.308;2022-07-29T13:30:20;41.30;46.50
41471;DHT22;27211;51.220;5.308;2022-07-29T13:32:46;41.50;46.10
41471;DHT22;27211;51.220;5.308;2022-07-29T13:35:13;41.90;45.50
41471;DHT22;27211;51.220;5.308;2022-07-29T13:37:39;41.60;45.80
41471;DHT22;27211;51.220;5.308;2022-07-29T13:40:09;40.80;46.10
41471;DHT22;27211;51.220;5.308;2022-07-29T13:42:35;39.20;47.40
41471;DHT22;27211;51.220;5.308;2022-07-29T13:45:17;38.10;48.20
41471;DHT22;27211;51.220;5.308;2022-07-29T13:47:49;36.70;49.40
41471;DHT22;27211;51.220;5.308;2022-07-29T13:50:14;36.50;49.90
41471;DHT22;27211;51.220;5.308;2022-07-29T13:52:40;37.40;48.80
41471;DHT22;27211;51.220;5.308;2022-07-29T13:55:07;38.10;48.50
41471;DHT22;27211;51.220;5.308;2022-07-29T13:57:33;39.60;48.30
41471;DHT22;27211;51.220;5.308;2022-07-29T13:59:59;39.50;48.20
41471;DHT22;27211;51.220;5.308;2022-07-29T14:02:24;38.70;48.50
41471;DHT22;27211;51.220;5.308;2022-07-29T14:04:50;37.40;49.30
41471;DHT22;27211;51.220;5.308;2022-07-29T14:07:19;36.20;50.50
41471;DHT22;27211;51.220;5.308;2022-07-29T14:09:47;35.70;51.10
41471;DHT22;27211;51.220;5.308;2022-07-29T14:12:13;36.30;50.80
41471;DHT22;27211;51.220;5.308;2022-07-29T14:14:39;37.80;49.70
41471;DHT22;27211;51.220;5.308;2022-07-29T14:17:05;38.40;48.30
41471;DHT22;27211;51.220;5.308;2022-07-29T14:19:35;37.50;48.90
41471;DHT22;27211;51.220;5.308;2022-07-29T14:22:03;36.70;49.80
41471;DHT22;27211;51.220;5.308;2022-07-29T14:24:29;37.10;49.80
41471;DHT22;27211;51.220;5.308;2022-07-29T14:26:55;37.70;49.10
41471;DHT22;27211;51.220;5.308;2022-07-29T14:29:22;38.30;49.00
41471;DHT22;27211;51.220;5.308;2022-07-29T14:31:47;38.70;48.60
41471;DHT22;27211;51.220;5.308;2022-07-29T14:34:14;39.70;47.60
41471;DHT22;27211;51.220;5.308;2022-07-29T14:36:41;40.60;46.90
41471;DHT22;27211;51.220;5.308;2022-07-29T14:39:06;40.30;46.80
41471;DHT22;27211;51.220;5.308;2022-07-29T14:41:32;39.30;47.10
41471;DHT22;27211;51.220;5.308;2022-07-29T14:43:58;38.60;48.00
41471;DHT22;27211;51.220;5.308;2022-07-29T14:46:26;39.00;48.00
41471;DHT22;27211;51.220;5.308;2022-07-29T14:48:52;39.30;47.50
41471;DHT22;27211;51.220;5.308;2022-07-29T14:51:19;39.80;46.60
41471;DHT22;27211;51.220;5.308;2022-07-29T14:53:44;39.90;46.50
41471;DHT22;27211;51.220;5.308;2022-07-29T14:56:10;40.20;46.40
41471;DHT22;27211;51.220;5.308;2022-07-29T14:58:37;40.10;46.80
41471;DHT22;27211;51.220;5.308;2022-07-29T15:01:02;39.30;46.60
41471;DHT22;27211;51.220;5.308;2022-07-29T15:03:29;38.00;47.70
41471;DHT22;27211;51.220;5.308;2022-07-29T15:05:55;37.10;48.60
41471;DHT22;27211;51.220;5.308;2022-07-29T15:08:21;36.40;49.60
41471;DHT22;27211;51.220;5.308;2022-07-29T15:10:47;35.70;49.70
41471;DHT22;27211;51.220;5.308;2022-07-29T15:13:13;35.40;50.40
41471;DHT22;27211;51.220;5.308;2022-07-29T15:15:39;35.30;50.20
41471;DHT22;27211;51.220;5.308;2022-07-29T15:18:07;35.30;50.20
41471;DHT22;27211;51.220;5.308;2022-07-29T15:20:35;34.90;50.90
41471;DHT22;27211;51.220;5.308;2022-07-29T15:23:17;34.40;50.40
41471;DHT22;27211;51.220;5.308;2022-07-29T15:26:13;34.00;51.70
41471;DHT22;27211;51.220;5.308;2022-07-29T15:28:39;33.90;51.10
41471;DHT22;27211;51.220;5.308;2022-07-29T15:31:05;33.00;51.40
41471;DHT22;27211;51.220;5.308;2022-07-29T15:33:31;32.50;52.00
41471;DHT22;27211;51.220;5.308;2022-07-29T15:35:57;32.10;52.80
41471;DHT22;27211;51.220;5.308;2022-07-29T15:38:23;32.00;53.80
41471;DHT22;27211;51.220;5.308;2022-07-29T15:40:49;32.20;52.90
41471;DHT22;27211;51.220;5.308;2022-07-29T15:43:15;31.80;53.50
41471;DHT22;27211;51.220;5.308;2022-07-29T15:45:42;31.90;53.30
41471;DHT22;27211;51.220;5.308;2022-07-29T15:48:31;31.70;53.30
41471;DHT22;27211;51.220;5.308;2022-07-29T15:51:01;31.80;53.30
41471;DHT22;27211;51.220;5.308;2022-07-29T15:53:28;31.80;53.90
41471;DHT22;27211;51.220;5.308;2022-07-29T15:55:54;31.90;53.00
41471;DHT22;27211;51.220;5.308;2022-07-29T15:58:19;31.50;53.20
41471;DHT22;27211;51.220;5.308;2022-07-29T16:00:46;31.20;54.20
41471;DHT22;27211;51.220;5.308;2022-07-29T16:03:12;31.20;54.20
41471;DHT22;27211;51.220;5.308;2022-07-29T16:05:41;31.10;54.30
41471;DHT22;27211;51.220;5.308;2022-07-29T16:08:08;30.90;53.70
41471;DHT22;27211;51.220;5.308;2022-07-29T16:10:34;30.90;53.70
41471;DHT22;27211;51.220;5.308;2022-07-29T16:13:00;30.90;54.30
41471;DHT22;27211;51.220;5.308;2022-07-29T16:15:26;31.10;54.20
41471;DHT22;27211;51.220;5.308;2022-07-29T16:17:52;30.90;53.40
41471;DHT22;27211;51.220;5.308;2022-07-29T16:20:18;30.70;53.60